Bom Jardim de Goias, Brazil
Current Conditions -  °F | °C
As of 6:00 PM on Tuesday 21 Oct 2014 (Local Time) from SBGO Reporting Station
Few Clouds Few Clouds  
Wind Chill: 93°   Ceiling: Unl
Heat Index: 93°   Visibility: 6mi
Dew Point: 52°   Wind: 10mph
Humidity: 24%   Direction: 150°SSE
Pressure: 29.88"   Gusts: NA
Location:  16.21°S, 52.17°W
Report Text: SBGO 212000Z 15009KT 9999 FEW040 34/11 Q1012
Loading
Personal Weather Stations






























Interactive Weather Map
Tropical Storm Tracking
New forecast layout! Learn more

10-Day Weather Forecast

Advertisements
Track Severe Weather on mobile